Time;durP1;ratioP1;P1;durP2;ratioP2;P2;SDS_P1;SDS_P2;PMS_P1;PMS_P2;Temp;Humidity;BMP_temperature;BMP_pressure;BME280_temperature;BME280_humidity;BME280_pressure;Samples;Min_cycle;Max_cycle;Signal;HPM_P1;HPM_P2
2024/01/13 00:00:11;;;;;;;;;;;;;;;25.31;36.67;95004.88;5033248;28;7280;-38
2024/01/13 00:02:37;;;;;;;;;;;;;;;25.24;37.12;94994.31;5019423;28;9232;-38
2024/01/13 00:05:18;;;;;;;;;;;;;;;25.22;36.36;94996.06;5037793;28;8716;-38
2024/01/13 00:07:47;;;;;;;;;;;;;;;25.21;36.86;94989.03;5034819;28;7041;-38
2024/01/13 00:10:43;;;;;;;;;;;;;;;25.21;36.40;94997.28;5035228;28;7312;-36
2024/01/13 00:13:18;;;;;;;;;;;;;;;25.18;36.52;94990.03;4921351;28;8761;-37
2024/01/13 00:15:44;;;;;;;;;;;;;;;25.19;38.36;94989.53;4934530;28;7330;-37
2024/01/13 00:18:10;;;;;;;;;;;;;;;25.18;37.38;94985.28;4930005;28;9640;-36
2024/01/13 00:20:50;;;;;;;;;;;;;;;25.19;37.40;94984.03;4913229;28;7041;-57
2024/01/13 00:23:18;;;;;;;;;;;;;;;25.18;37.46;94982.53;4923138;28;6935;-57
2024/01/13 00:25:55;;;;;;;;;;;;;;;25.19;36.86;94986.00;4915168;29;7226;-57
2024/01/13 00:28:27;;;;;;;;;;;;;;;25.18;37.44;94981.78;4922682;29;7250;-57
2024/01/13 00:30:53;;;;;;;;;;;;;;;25.19;36.98;94983.25;4941568;28;7261;-52
2024/01/13 00:33:20;;;;;;;;;;;;;;;25.18;37.44;94976.25;4934982;28;7466;-57
2024/01/13 00:35:46;;;;;;;;;;;;;;;25.17;36.75;94975.50;4923523;29;8848;-57
2024/01/13 00:38:12;;;;;;;;;;;;;;;25.16;37.21;94973.25;4917504;28;6969;-57
2024/01/13 00:40:37;;;;;;;;;;;;;;;25.17;37.54;94974.75;4916136;29;7051;-56
2024/01/13 00:43:04;;;;;;;;;;;;;;;25.17;36.77;94974.75;4933596;28;7256;-57
2024/01/13 00:45:30;;;;;;;;;;;;;;;25.16;37.79;94970.50;4933449;28;7478;-57
2024/01/13 00:47:58;;;;;;;;;;;;;;;25.17;37.92;94972.00;4917265;29;6976;-57
2024/01/13 00:50:23;;;;;;;;;;;;;;;25.15;36.86;94967.00;5004840;28;9059;-57
2024/01/13 00:52:49;;;;;;;;;;;;;;;25.15;37.27;94971.72;5039855;28;7331;-57
2024/01/13 00:55:16;;;;;;;;;;;;;;;25.15;36.84;94971.72;5024007;28;7403;-57
2024/01/13 00:57:42;;;;;;;;;;;;;;;25.14;37.36;94970.25;5013626;28;7033;-57
2024/01/13 01:00:08;;;;;;;;;;;;;;;25.14;37.85;94970.25;5015257;28;7730;-57
2024/01/13 01:02:34;;;;;;;;;;;;;;;25.15;37.78;94971.72;5035568;28;9055;-57
2024/01/13 01:05:00;;;;;;;;;;;;;;;25.14;36.87;94962.72;5015302;28;8397;-57
2024/01/13 01:07:26;;;;;;;;;;;;;;;25.14;36.75;94964.75;5040188;28;7053;-57
2024/01/13 01:09:52;;;;;;;;;;;;;;;25.15;36.89;94968.97;5014134;28;7195;-57
2024/01/13 01:12:18;;;;;;;;;;;;;;;25.13;36.77;94958.47;5033017;28;9209;-57
2024/01/13 01:14:44;;;;;;;;;;;;;;;25.13;36.85;94960.47;5012453;28;9127;-57
2024/01/13 01:17:10;;;;;;;;;;;;;;;25.13;36.97;94955.72;5037000;28;7184;-57
2024/01/13 01:19:36;;;;;;;;;;;;;;;25.13;37.79;94957.72;5033632;28;9456;-57
2024/01/13 01:22:03;;;;;;;;;;;;;;;25.13;37.78;94963.22;5033581;28;7552;-57
2024/01/13 01:24:29;;;;;;;;;;;;;;;25.13;36.91;94952.22;5043421;28;8979;-57
2024/01/13 01:26:56;;;;;;;;;;;;;;;25.12;37.03;94951.44;5034031;28;7091;-57
2024/01/13 01:29:24;;;;;;;;;;;;;;;25.14;37.17;94953.72;5035367;28;7491;-41
2024/01/13 01:31:50;;;;;;;;;;;;;;;25.14;37.39;94950.97;5019350;28;9085;-41
2024/01/13 01:34:19;;;;;;;;;;;;;;;25.14;37.62;94950.97;5022579;28;6985;-41
2024/01/13 01:36:47;;;;;;;;;;;;;;;25.15;37.63;94941.47;5016680;28;9172;-41
2024/01/13 01:39:12;;;;;;;;;;;;;;;25.14;37.64;94945.47;5021624;28;8743;-43
2024/01/13 01:41:47;;;;;;;;;;;;;;;25.13;36.95;94941.19;5018953;28;9368;-41
2024/01/13 01:44:14;;;;;;;;;;;;;;;25.12;37.58;94934.94;5026023;28;7247;-41
2024/01/13 01:46:43;;;;;;;;;;;;;;;25.12;36.94;94928.69;5044127;28;7008;-41
2024/01/13 01:49:14;;;;;;;;;;;;;;;25.13;37.73;94935.69;5024908;28;7161;-41
2024/01/13 01:51:42;;;;;;;;;;;;;;;25.12;37.75;94937.69;5019313;28;8956;-42
2024/01/13 01:54:13;;;;;;;;;;;;;;;25.13;37.51;94938.44;5039964;28;7062;-42
2024/01/13 01:56:48;;;;;;;;;;;;;;;25.14;37.05;94935.19;5024720;28;7228;-41
2024/01/13 01:59:24;;;;;;;;;;;;;;;25.12;37.12;94921.16;5021408;28;7062;-42
2024/01/13 02:01:52;;;;;;;;;;;;;;;25.14;37.64;94928.97;5013501;28;7035;-42
2024/01/13 02:04:48;;;;;;;;;;;;;;;25.15;36.71;94927.69;5039729;28;7530;-40
2024/01/13 02:07:24;;;;;;;;;;;;;;;25.15;37.37;94924.94;4921291;29;8507;-41
2024/01/13 02:09:50;;;;;;;;;;;;;;;25.16;36.64;94929.22;4945587;29;7337;-42
2024/01/13 02:12:36;;;;;;;;;;;;;;;25.15;37.71;94919.44;4926616;29;7235;-41
2024/01/13 02:15:18;;;;;;;;;;;;;;;25.13;37.35;94911.69;4929514;29;7198;-42
2024/01/13 02:17:56;;;;;;;;;;;;;;;25.15;37.13;94916.69;4934908;29;9080;-42
2024/01/13 02:20:45;;;;;;;;;;;;;;;25.15;36.56;94908.44;4935091;29;8493;-41
2024/01/13 02:23:21;;;;;;;;;;;;;;;25.15;37.69;94900.16;4942666;29;7029;-41
2024/01/13 02:26:28;;;;;;;;;;;;;;;25.15;36.59;94894.66;4934130;28;8415;-41
2024/01/13 02:28:53;;;;;;;;;;;;;;;25.13;36.98;94891.66;4925559;29;9368;-42
2024/01/13 02:31:32;;;;;;;;;;;;;;;25.13;37.42;94883.41;4920367;28;7243;-41
2024/01/13 02:33:58;;;;;;;;;;;;;;;25.13;36.98;94873.16;4924648;29;9098;-41
2024/01/13 02:36:24;;;;;;;;;;;;;;;25.13;37.36;94880.63;4926859;28;7240;-41
2024/01/13 02:38:50;;;;;;;;;;;;;;;25.14;37.35;94871.16;4950158;28;9167;-38
2024/01/13 02:41:21;;;;;;;;;;;;;;;25.13;37.52;94866.88;4937391;28;7051;-38
2024/01/13 02:43:48;;;;;;;;;;;;;;;25.13;37.51;94864.13;4982866;28;9074;-37
2024/01/13 02:46:17;;;;;;;;;;;;;;;25.11;37.22;94859.13;5031115;28;7674;-38
2024/01/13 02:48:48;;;;;;;;;;;;;;;25.15;37.42;94858.88;5044577;28;7128;-38
2024/01/13 02:51:41;;;;;;;;;;;;;;;25.15;36.81;94858.88;5042209;28;9512;-38
2024/01/13 02:54:20;;;;;;;;;;;;;;;25.14;37.46;94858.13;5018138;28;7040;-37
2024/01/13 02:57:14;;;;;;;;;;;;;;;25.15;36.84;94850.63;5014935;28;8826;-37
2024/01/13 02:59:48;;;;;;;;;;;;;;;25.15;36.70;94848.63;5025967;28;7097;-37
2024/01/13 03:02:25;;;;;;;;;;;;;;;25.14;36.91;94841.59;5032924;28;6908;-38
2024/01/13 03:04:51;;;;;;;;;;;;;;;25.12;36.59;94826.84;5033283;28;7361;-38
2024/01/13 03:07:26;;;;;;;;;;;;;;;25.14;36.44;94836.09;5024775;28;8942;-38
2024/01/13 03:10:25;;;;;;;;;;;;;;;25.14;36.95;94832.63;5027246;28;7333;-38
2024/01/13 03:12:52;;;;;;;;;;;;;;;25.13;37.12;94831.84;4967561;28;6940;-38
2024/01/13 03:15:18;;;;;;;;;;;;;;;25.12;36.88;94829.59;4978660;28;8220;-38
2024/01/13 03:18:01;;;;;;;;;;;;;;;25.13;37.29;94825.59;4973641;28;10161;-38
2024/01/13 03:20:46;;;;;;;;;;;;;;;25.13;36.96;94828.34;4975325;28;7092;-37
2024/01/13 03:23:12;;;;;;;;;;;;;;;25.12;37.38;94827.59;4965356;28;7350;-38
2024/01/13 03:25:48;;;;;;;;;;;;;;;25.08;36.95;94827.09;4965377;28;9130;-37
2024/01/13 03:28:21;;;;;;;;;;;;;;;25.12;36.69;94829.59;4963671;28;7833;-37
2024/01/13 03:30:55;;;;;;;;;;;;;;;25.12;36.64;94824.09;4969099;28;9229;-38
2024/01/13 03:33:23;;;;;;;;;;;;;;;25.11;36.35;94815.09;4984149;28;7008;-37
2024/01/13 03:35:49;;;;;;;;;;;;;;;25.11;36.42;94811.56;4971149;28;6990;-37
2024/01/13 03:38:15;;;;;;;;;;;;;;;25.12;37.23;94813.09;4963801;28;7212;-39
2024/01/13 03:40:41;;;;;;;;;;;;;;;25.10;36.37;94810.09;4956088;28;9113;-38
2024/01/13 03:43:09;;;;;;;;;;;;;;;25.12;37.16;94818.59;4954874;28;7197;-38
2024/01/13 03:46:02;;;;;;;;;;;;;;;25.12;37.17;94819.31;4959399;28;6996;-38
2024/01/13 03:48:40;;;;;;;;;;;;;;;25.13;36.37;94818.09;4969320;28;7246;-42
2024/01/13 03:51:09;;;;;;;;;;;;;;;25.13;36.20;94820.84;5033001;28;9479;-41
2024/01/13 03:53:36;;;;;;;;;;;;;;;25.14;36.36;94816.09;5020408;28;6990;-40
2024/01/13 03:56:41;;;;;;;;;;;;;;;25.14;37.29;94818.84;5005497;28;7326;-40
2024/01/13 03:59:12;;;;;;;;;;;;;;;25.11;36.50;94814.31;4941131;28;9502;-41
2024/01/13 04:01:39;;;;;;;;;;;;;;;25.13;36.48;94823.59;4942820;28;7073;-40
2024/01/13 04:04:06;;;;;;;;;;;;;;;25.12;36.43;94819.31;4927972;28;7218;-40
2024/01/13 04:06:38;;;;;;;;;;;;;;;25.12;36.80;94813.09;4939045;28;7428;-41
2024/01/13 04:09:07;;;;;;;;;;;;;;;25.12;36.29;94818.59;4927685;28;8452;-40
2024/01/13 04:11:33;;;;;;;;;;;;;;;25.11;36.78;94822.59;4941063;28;7227;-40
2024/01/13 04:14:11;;;;;;;;;;;;;;;25.12;36.33;94813.09;4923548;28;7143;-41
2024/01/13 04:16:58;;;;;;;;;;;;;;;25.11;37.30;94817.09;4936877;28;7177;-42
2024/01/13 04:19:43;;;;;;;;;;;;;;;25.13;36.96;94817.34;4935406;28;9231;-41
2024/01/13 04:22:09;;;;;;;;;;;;;;;25.12;36.67;94808.31;4923413;29;9617;-39
2024/01/13 04:24:46;;;;;;;;;;;;;;;25.12;36.80;94813.81;4938960;28;7207;-41
2024/01/13 04:27:26;;;;;;;;;;;;;;;25.11;37.12;94811.56;4923640;28;7101;-40
2024/01/13 04:30:07;;;;;;;;;;;;;;;25.11;36.73;94814.31;4993280;28;7513;-41
2024/01/13 04:32:34;;;;;;;;;;;;;;;25.12;37.07;94813.81;5025942;28;9552;-42
2024/01/13 04:35:02;;;;;;;;;;;;;;;25.12;36.41;94827.59;5033424;28;7278;-40
2024/01/13 04:37:31;;;;;;;;;;;;;;;25.11;36.92;94817.09;5021822;28;7037;-40
2024/01/13 04:39:57;;;;;;;;;;;;;;;25.11;37.04;94823.34;5034207;28;9376;-41
2024/01/13 04:42:26;;;;;;;;;;;;;;;25.13;36.19;94820.09;5019928;28;7033;-41
2024/01/13 04:44:55;;;;;;;;;;;;;;;25.13;36.85;94815.34;5021876;28;7315;-42
2024/01/13 04:47:31;;;;;;;;;;;;;;;25.12;37.11;94822.09;5019977;28;7927;-42
2024/01/13 04:50:09;;;;;;;;;;;;;;;25.13;36.03;94820.09;5036539;28;6997;-41
2024/01/13 04:52:46;;;;;;;;;;;;;;;25.13;37.15;94822.84;5044264;28;7944;-41
2024/01/13 04:55:11;;;;;;;;;;;;;;;25.11;36.77;94820.59;5033770;28;7189;-43
2024/01/13 04:57:49;;;;;;;;;;;;;;;25.12;36.80;94829.59;5039093;28;9110;-43
2024/01/13 05:00:16;;;;;;;;;;;;;;;25.13;37.09;94828.34;5027108;28;7393;-41
2024/01/13 05:03:20;;;;;;;;;;;;;;;25.12;36.67;94830.34;5040237;28;7167;-41
2024/01/13 05:05:54;;;;;;;;;;;;;;;25.12;36.04;94821.34;5037689;28;7350;-40
2024/01/13 05:08:36;;;;;;;;;;;;;;;25.11;36.88;94825.34;5046779;28;9023;-40
2024/01/13 05:11:03;;;;;;;;;;;;;;;25.10;36.81;94821.09;5024594;28;7242;-40
2024/01/13 05:13:41;;;;;;;;;;;;;;;25.11;36.81;94822.59;5015952;28;8882;-40
2024/01/13 05:16:08;;;;;;;;;;;;;;;25.09;36.39;94825.84;5019691;28;6991;-41
2024/01/13 05:18:51;;;;;;;;;;;;;;;25.11;37.10;94822.59;5040338;28;9155;-40
2024/01/13 05:21:24;;;;;;;;;;;;;;;25.11;37.00;94820.59;5017281;28;7662;-41
2024/01/13 05:24:44;;;;;;;;;;;;;;;25.09;36.10;94823.09;5022385;28;6998;-41
2024/01/13 05:27:40;;;;;;;;;;;;;;;25.10;36.50;94821.81;4970749;28;7336;-40
2024/01/13 05:30:09;;;;;;;;;;;;;;;25.10;36.76;94816.31;4982925;28;7209;-40
2024/01/13 05:32:41;;;;;;;;;;;;;;;25.10;36.79;94819.06;4998972;28;7152;-41
2024/01/13 05:35:07;;;;;;;;;;;;;;;25.09;36.67;94822.34;4976039;28;8480;-40
2024/01/13 05:37:33;;;;;;;;;;;;;;;25.11;36.30;94828.09;4967232;28;7024;-41
2024/01/13 05:40:00;;;;;;;;;;;;;;;25.09;37.00;94822.34;4965561;28;7086;-40
2024/01/13 05:42:26;;;;;;;;;;;;;;;25.12;36.50;94829.59;4973934;28;7058;-40
2024/01/13 05:44:53;;;;;;;;;;;;;;;25.11;36.68;94831.59;5001890;28;9294;-42
2024/01/13 05:47:18;;;;;;;;;;;;;;;25.12;36.36;94827.59;4999109;28;7816;-41
2024/01/13 05:49:48;;;;;;;;;;;;;;;25.13;37.04;94833.84;4972467;28;8438;-41
2024/01/13 05:52:24;;;;;;;;;;;;;;;25.10;36.34;94830.09;4998262;28;7011;-42
2024/01/13 05:54:56;;;;;;;;;;;;;;;25.12;36.53;94830.34;4991946;28;9123;-41
2024/01/13 05:57:52;;;;;;;;;;;;;;;25.11;36.09;94841.84;4983105;28;7218;-41
2024/01/13 06:00:19;;;;;;;;;;;;;;;25.13;36.17;94833.84;4911562;29;9232;-41
2024/01/13 06:02:45;;;;;;;;;;;;;;;25.13;36.58;94842.09;4944445;28;7527;-39
2024/01/13 06:05:11;;;;;;;;;;;;;;;25.10;36.42;94830.09;4956308;28;9118;-39
2024/01/13 06:07:37;;;;;;;;;;;;;;;25.11;36.83;94837.09;4972655;28;7301;-39
2024/01/13 06:10:04;;;;;;;;;;;;;;;25.11;36.32;94839.09;4971914;28;9358;-38
2024/01/13 06:12:31;;;;;;;;;;;;;;;25.11;36.56;94836.34;4972119;28;7086;-39
2024/01/13 06:14:59;;;;;;;;;;;;;;;25.10;36.19;94841.09;4972545;28;9051;-39
2024/01/13 06:17:32;;;;;;;;;;;;;;;25.09;36.28;94836.84;4955395;28;7163;-39
2024/01/13 06:20:08;;;;;;;;;;;;;;;25.11;36.90;94833.59;4974508;28;9085;-39
2024/01/13 06:22:34;;;;;;;;;;;;;;;25.12;36.88;94835.13;4971410;28;7295;-39
2024/01/13 06:25:15;;;;;;;;;;;;;;;25.11;36.16;94828.09;4978556;28;7334;-39
2024/01/13 06:27:48;;;;;;;;;;;;;;;25.11;36.49;94828.84;4975031;28;7405;-39
2024/01/13 06:30:17;;;;;;;;;;;;;;;25.10;36.69;94832.84;4975015;28;7249;-39
2024/01/13 06:32:50;;;;;;;;;;;;;;;25.12;36.79;94833.09;4958691;28;7240;-39
2024/01/13 06:35:16;;;;;;;;;;;;;;;25.12;36.77;94833.09;4966473;28;8193;-39
2024/01/13 06:37:44;;;;;;;;;;;;;;;25.07;36.87;94825.59;5032965;28;6973;-38
2024/01/13 06:40:10;;;;;;;;;;;;;;;25.09;36.36;94833.34;5013950;28;9375;-39
2024/01/13 06:42:41;;;;;;;;;;;;;;;25.09;36.61;94823.09;5023498;28;7379;-39
2024/01/13 06:45:07;;;;;;;;;;;;;;;25.09;36.61;94816.81;5033137;28;7283;-39
2024/01/13 06:47:42;;;;;;;;;;;;;;;25.10;36.57;94813.56;5039341;28;6977;-39
2024/01/13 06:50:10;;;;;;;;;;;;;;;25.09;36.08;94819.59;5020723;28;8992;-39
2024/01/13 06:52:56;;;;;;;;;;;;;;;25.10;36.14;94826.59;5037947;28;7088;-39
2024/01/13 06:55:34;;;;;;;;;;;;;;;25.08;36.14;94823.56;5034804;28;7167;-39
2024/01/13 06:58:06;;;;;;;;;;;;;;;25.09;36.44;94822.34;5038700;28;7255;-39
2024/01/13 07:00:34;;;;;;;;;;;;;;;25.09;36.70;94825.09;5022547;28;7031;-39
2024/01/13 07:03:00;;;;;;;;;;;;;;;25.09;36.05;94817.59;5039118;28;7198;-39
2024/01/13 07:05:59;;;;;;;;;;;;;;;25.09;36.94;94814.06;5018058;28;9153;-39
2024/01/13 07:08:24;;;;;;;;;;;;;;;25.08;36.34;94818.81;4994653;28;9123;-37
2024/01/13 07:11:11;;;;;;;;;;;;;;;25.09;36.92;94819.59;4995540;28;7030;-37
2024/01/13 07:14:09;;;;;;;;;;;;;;;25.09;36.03;94825.09;4997146;28;9174;-36
2024/01/13 07:16:44;;;;;;;;;;;;;;;25.09;36.03;94822.34;4995774;28;9098;-36
2024/01/13 07:19:19;;;;;;;;;;;;;;;25.08;36.52;94820.81;5002884;28;7500;-37
2024/01/13 07:22:01;;;;;;;;;;;;;;;25.06;37.12;94826.06;4991788;28;7239;-37
2024/01/13 07:24:30;;;;;;;;;;;;;;;25.07;36.14;94816.56;4982803;28;8419;-36
2024/01/13 07:27:25;;;;;;;;;;;;;;;25.11;35.98;94833.59;4993657;28;8838;-36
2024/01/13 07:30:01;;;;;;;;;;;;;;;25.09;36.77;94831.34;4955128;28;7253;-37
2024/01/13 07:32:29;;;;;;;;;;;;;;;25.11;36.37;94833.59;4952324;28;9218;-37
2024/01/13 07:34:57;;;;;;;;;;;;;;;25.10;36.18;94843.13;4954841;28;8795;-37
2024/01/13 07:37:23;;;;;;;;;;;;;;;25.10;36.67;94837.63;4954259;28;7668;-36
2024/01/13 07:39:50;;;;;;;;;;;;;;;25.11;36.64;94833.59;4954306;28;9081;-37
2024/01/13 07:42:46;;;;;;;;;;;;;;;25.12;36.86;94840.63;4954220;28;7559;-37
2024/01/13 07:45:13;;;;;;;;;;;;;;;25.12;36.14;94848.88;4916918;29;7207;-37
2024/01/13 07:48:05;;;;;;;;;;;;;;;25.13;36.67;94836.59;4916138;29;7435;-37
2024/01/13 07:50:41;;;;;;;;;;;;;;;25.12;36.32;94835.13;4914991;29;7284;-36
2024/01/13 07:53:17;;;;;;;;;;;;;;;25.11;36.19;94825.34;4916744;29;7273;-37
2024/01/13 07:55:43;;;;;;;;;;;;;;;25.13;36.39;94831.09;4915682;29;9069;-37
2024/01/13 07:58:10;;;;;;;;;;;;;;;25.12;36.50;94827.59;4915141;29;7160;-37
2024/01/13 08:00:46;;;;;;;;;;;;;;;25.13;36.07;94833.84;4915285;29;7317;-37
2024/01/13 08:03:22;;;;;;;;;;;;;;;25.15;36.56;94828.59;4917070;29;7074;-37
2024/01/13 08:05:59;;;;;;;;;;;;;;;25.14;37.11;94827.09;4924614;28;6989;-37
2024/01/13 08:08:27;;;;;;;;;;;;;;;25.15;36.81;94820.34;4956776;28;7392;-37
2024/01/13 08:11:20;;;;;;;;;;;;;;;25.16;36.29;94824.59;4956062;28;7327;-37
2024/01/13 08:13:48;;;;;;;;;;;;;;;25.16;36.41;94819.88;4955404;28;9038;-37
2024/01/13 08:16:29;;;;;;;;;;;;;;;25.19;36.72;94821.59;4952307;28;7086;-36
2024/01/13 08:18:55;;;;;;;;;;;;;;;25.18;36.49;94813.84;4954872;28;7329;-37
2024/01/13 08:21:22;;;;;;;;;;;;;;;25.18;36.20;94824.88;4983255;28;8737;-37
2024/01/13 08:23:55;;;;;;;;;;;;;;;25.18;37.05;94827.63;5014905;28;7291;-37
2024/01/13 08:26:22;;;;;;;;;;;;;;;25.18;36.24;94827.63;5037699;28;7229;-37
2024/01/13 08:28:48;;;;;;;;;;;;;;;25.18;36.45;94822.09;5017767;28;7210;-37
2024/01/13 08:31:14;;;;;;;;;;;;;;;25.18;37.10;94822.88;5017669;28;7393;-37
2024/01/13 08:33:39;;;;;;;;;;;;;;;25.18;36.42;94822.09;5014190;28;9264;-37
2024/01/13 08:36:05;;;;;;;;;;;;;;;25.17;36.45;94821.34;5012650;28;7054;-37
2024/01/13 08:38:31;;;;;;;;;;;;;;;25.19;37.08;94824.34;5018112;28;7026;-37
2024/01/13 08:40:57;;;;;;;;;;;;;;;25.18;36.86;94819.34;5029707;28;9047;-37
2024/01/13 08:43:28;;;;;;;;;;;;;;;25.19;36.73;94813.34;5030818;28;8116;-37
2024/01/13 08:45:53;;;;;;;;;;;;;;;25.25;36.37;94821.63;5033854;28;9529;-37
2024/01/13 08:48:19;;;;;;;;;;;;;;;25.24;36.95;94820.09;5016649;28;7038;-36
2024/01/13 08:50:45;;;;;;;;;;;;;;;25.23;36.73;94822.09;5013449;28;7213;-37
2024/01/13 08:53:11;;;;;;;;;;;;;;;25.22;36.59;94817.09;5016066;28;8906;-37
2024/01/13 08:55:37;;;;;;;;;;;;;;;25.21;36.53;94818.34;5025835;28;7118;-37
2024/01/13 08:58:04;;;;;;;;;;;;;;;25.21;37.18;94832.09;5014657;28;9227;-36
2024/01/13 09:00:32;;;;;;;;;;;;;;;25.22;36.71;94828.13;5014624;28;9264;-36
2024/01/13 09:03:29;;;;;;;;;;;;;;;25.24;37.62;94831.13;5035749;28;7357;-36
2024/01/13 09:06:04;;;;;;;;;;;;;;;25.23;36.85;94832.34;4994025;28;7255;-37
2024/01/13 09:08:31;;;;;;;;;;;;;;;25.27;37.75;94830.13;5007106;28;7026;-37
2024/01/13 09:10:57;;;;;;;;;;;;;;;25.25;37.76;94824.38;4999121;28;7076;-37
2024/01/13 09:13:54;;;;;;;;;;;;;;;25.30;37.54;94835.38;4997808;28;7815;-37
2024/01/13 09:16:31;;;;;;;;;;;;;;;25.33;36.95;94822.63;4970390;28;9360;-36
2024/01/13 09:18:58;;;;;;;;;;;;;;;25.34;37.15;94824.13;4974811;28;9191;-36
2024/01/13 09:21:25;;;;;;;;;;;;;;;25.37;37.94;94825.88;4971718;28;7208;-36
2024/01/13 09:23:51;;;;;;;;;;;;;;;25.40;37.24;94813.88;4972313;28;7513;-36
2024/01/13 09:26:17;;;;;;;;;;;;;;;25.42;37.05;94814.16;4986786;28;7132;-37
2024/01/13 09:28:43;;;;;;;;;;;;;;;25.45;36.88;94818.66;4966015;28;6899;-37
2024/01/13 09:31:12;;;;;;;;;;;;;;;25.44;37.24;94817.16;4986865;28;7223;-37
2024/01/13 09:33:40;;;;;;;;;;;;;;;25.41;36.18;94818.88;4988148;28;7565;-38
2024/01/13 09:36:08;;;;;;;;;;;;;;;25.39;37.16;94815.88;4996544;28;7288;-38
2024/01/13 09:38:36;;;;;;;;;;;;;;;25.42;36.59;94816.91;4959601;28;9080;-38
2024/01/13 09:41:13;;;;;;;;;;;;;;;25.45;36.85;94807.66;4996247;28;9061;-38
2024/01/13 09:47:22;;;;;;;;;;;;;;;25.47;37.13;94794.13;4995503;28;6784;-37
2024/01/13 09:49:52;;;;;;;;;;;;;;;25.49;37.03;94791.63;4994509;28;9219;-38
2024/01/13 09:53:03;;;;;;;;;;;;;;;25.50;37.26;94790.38;4992874;28;6989;-38
2024/01/13 09:55:34;;;;;;;;;;;;;;;25.50;36.28;94793.13;4976511;28;7263;-38
2024/01/13 09:58:09;;;;;;;;;;;;;;;25.51;37.13;94785.63;4995281;28;9022;-37
2024/01/13 10:00:39;;;;;;;;;;;;;;;25.50;37.22;94793.13;4989396;28;9574;-38
2024/01/13 10:03:09;;;;;;;;;;;;;;;25.48;36.84;94790.13;4989777;28;7510;-37
2024/01/13 10:05:35;;;;;;;;;;;;;;;25.48;36.57;94790.13;4991761;28;9320;-38
2024/01/13 10:08:01;;;;;;;;;;;;;;;25.50;36.96;94792.38;4987286;28;9118;-38
2024/01/13 10:10:29;;;;;;;;;;;;;;;25.49;36.94;94786.09;4970714;28;7167;-38
2024/01/13 10:12:59;;;;;;;;;;;;;;;25.50;36.91;94782.13;4976817;28;9277;-37
2024/01/13 10:15:42;;;;;;;;;;;;;;;25.49;37.06;94780.59;4977415;28;7061;-38
2024/01/13 10:18:23;;;;;;;;;;;;;;;25.49;36.84;94766.09;4970680;28;9098;-38
2024/01/13 10:20:50;;;;;;;;;;;;;;;25.50;36.92;94765.59;4988913;28;8842;-38
2024/01/13 10:23:17;;;;;;;;;;;;;;;25.51;36.87;94766.34;4989349;28;9214;-38
2024/01/13 10:25:44;;;;;;;;;;;;;;;25.50;36.86;94762.84;4976139;28;9433;-38
2024/01/13 10:28:13;;;;;;;;;;;;;;;25.48;37.48;94757.09;4976174;28;9071;-39
2024/01/13 10:30:40;;;;;;;;;;;;;;;25.48;36.96;94754.31;4975562;28;7057;-37
2024/01/13 10:33:12;;;;;;;;;;;;;;;25.52;37.63;94759.56;5022421;28;9061;-37
2024/01/13 10:35:37;;;;;;;;;;;;;;;25.51;37.23;94767.09;5002492;28;9077;-37
2024/01/13 10:38:05;;;;;;;;;;;;;;;25.52;37.56;94760.34;5019027;28;6976;-38
2024/01/13 10:40:30;;;;;;;;;;;;;;;25.54;37.28;94760.56;5036262;28;8837;-37
2024/01/13 10:43:06;;;;;;;;;;;;;;;25.53;37.10;94764.59;5029579;28;7061;-37
2024/01/13 10:45:40;;;;;;;;;;;;;;;25.54;37.11;94760.56;5038004;28;7431;-37
2024/01/13 10:48:21;;;;;;;;;;;;;;;25.54;37.94;94757.81;5026986;28;9610;-37
2024/01/13 10:50:53;;;;;;;;;;;;;;;25.55;37.62;94753.84;5041641;28;9133;-37
2024/01/13 10:53:34;;;;;;;;;;;;;;;25.56;37.90;94749.06;5034552;28;7072;-37
2024/01/13 10:56:04;;;;;;;;;;;;;;;25.55;37.82;94739.31;5017039;28;9111;-37
2024/01/13 10:58:57;;;;;;;;;;;;;;;25.56;38.09;94736.03;5036349;28;9102;-36
2024/01/13 11:01:32;;;;;;;;;;;;;;;25.56;37.76;94730.53;5032941;28;7268;-36
2024/01/13 11:04:16;;;;;;;;;;;;;;;25.56;37.30;94730.53;5039952;28;9497;-37
2024/01/13 11:07:27;;;;;;;;;;;;;;;25.59;37.82;94729.53;5034530;28;8167;-36
2024/01/13 11:10:13;;;;;;;;;;;;;;;25.57;37.62;94721.03;4994643;28;7278;-37
2024/01/13 11:13:18;;;;;;;;;;;;;;;25.59;37.46;94724.03;4968172;28;7243;-37
2024/01/13 11:16:23;;;;;;;;;;;;;;;25.61;38.07;94724.28;4977635;28;9751;-37
2024/01/13 11:18:58;;;;;;;;;;;;;;;25.61;37.88;94723.50;4938748;28;7345;-36
2024/01/13 11:21:33;;;;;;;;;;;;;;;25.58;37.49;94722.50;4953397;28;7236;-37
2024/01/13 11:24:25;;;;;;;;;;;;;;;25.62;37.10;94727.78;4954333;28;9428;-37
2024/01/13 11:27:04;;;;;;;;;;;;;;;25.60;37.60;94720.00;4943140;28;9146;-36
2024/01/13 11:29:52;;;;;;;;;;;;;;;25.56;38.24;94718.75;4937689;28;7598;-36
2024/01/13 11:32:30;;;;;;;;;;;;;;;25.52;37.95;94707.25;4941482;28;9041;-36
2024/01/13 11:34:56;;;;;;;;;;;;;;;25.50;38.17;94710.50;4953021;28;7301;-37
2024/01/13 11:37:28;;;;;;;;;;;;;;;25.49;39.15;94711.75;4951615;28;9113;-37
2024/01/13 11:40:03;;;;;;;;;;;;;;;25.49;39.47;94703.50;4957094;28;6988;-36
2024/01/13 11:42:39;;;;;;;;;;;;;;;25.49;38.84;94695.22;4955289;28;7262;-37
2024/01/13 11:45:32;;;;;;;;;;;;;;;25.52;39.49;94702.50;4948653;28;8229;-36
2024/01/13 11:48:31;;;;;;;;;;;;;;;25.51;39.30;94690.00;4961401;28;9236;-37
2024/01/13 11:51:13;;;;;;;;;;;;;;;25.50;39.63;94688.47;4932648;28;7175;-57
2024/01/13 11:53:54;;;;;;;;;;;;;;;25.51;38.83;94695.50;4951529;28;9066;-56
2024/01/13 11:56:28;;;;;;;;;;;;;;;25.53;39.71;94687.47;4953306;28;7473;-56
2024/01/13 11:59:07;;;;;;;;;;;;;;;25.53;39.62;94690.22;4953759;28;9291;-56
2024/01/13 12:01:35;;;;;;;;;;;;;;;25.54;39.17;94683.47;4938307;28;7273;-56
2024/01/13 12:04:10;;;;;;;;;;;;;;;25.56;39.31;94685.69;4937739;28;8924;-56
2024/01/13 12:07:15;;;;;;;;;;;;;;;25.58;38.94;94689.47;4953929;28;7000;-56
2024/01/13 12:09:53;;;;;;;;;;;;;;;25.56;39.12;94680.94;4940963;28;9042;-56
2024/01/13 12:12:34;;;;;;;;;;;;;;;25.59;39.11;94679.19;4934510;28;7247;-56
2024/01/13 12:15:03;;;;;;;;;;;;;;;25.59;39.24;94657.91;4952935;28;8292;-56
2024/01/13 12:17:52;;;;;;;;;;;;;;;25.56;38.64;94636.88;4933613;28;7350;-57
2024/01/13 12:20:18;;;;;;;;;;;;;;;25.54;39.55;94633.13;4952301;28;8822;-57
2024/01/13 12:22:55;;;;;;;;;;;;;;;25.51;39.22;94612.13;4938943;28;7276;-57
2024/01/13 12:25:25;;;;;;;;;;;;;;;25.54;39.06;94620.13;4937025;28;7090;-56
2024/01/13 12:27:59;;;;;;;;;;;;;;;25.52;39.56;94619.88;4989590;28;7448;-57
2024/01/13 12:30:27;;;;;;;;;;;;;;;25.52;39.37;94613.59;5020582;28;7274;-57
2024/01/13 12:32:55;;;;;;;;;;;;;;;25.48;39.12;94599.34;5014550;28;9168;-56
2024/01/13 12:35:25;;;;;;;;;;;;;;;25.50;39.66;94592.09;5015816;28;7135;-57
2024/01/13 12:37:51;;;;;;;;;;;;;;;25.52;39.29;94580.56;5028599;28;9947;-56
2024/01/13 12:40:27;;;;;;;;;;;;;;;25.52;39.35;94592.31;5032112;28;7344;-56
2024/01/13 12:42:54;;;;;;;;;;;;;;;25.50;38.81;94599.59;5016086;28;7541;-56
2024/01/13 12:45:32;;;;;;;;;;;;;;;25.56;39.21;94612.09;5024639;28;8672;-57
2024/01/13 12:48:01;;;;;;;;;;;;;;;25.57;38.83;94621.88;5030290;28;7116;-56
2024/01/13 12:50:33;;;;;;;;;;;;;;;25.58;38.69;94617.13;5026601;28;9075;-58
2024/01/13 12:52:59;;;;;;;;;;;;;;;25.59;38.67;94622.09;5032636;28;8456;-57
2024/01/13 12:55:32;;;;;;;;;;;;;;;25.60;39.11;94612.56;5032678;28;7264;-58
2024/01/13 12:58:02;;;;;;;;;;;;;;;25.56;38.59;94614.09;5033397;28;9478;-58
2024/01/13 13:00:29;;;;;;;;;;;;;;;25.51;38.38;94620.38;5033694;28;7253;-38
2024/01/13 13:03:12;;;;;;;;;;;;;;;25.54;38.67;94627.63;5024242;28;8891;-37
2024/01/13 13:05:51;;;;;;;;;;;;;;;25.53;39.25;94621.38;5033615;28;9025;-37
2024/01/13 13:08:19;;;;;;;;;;;;;;;25.51;38.66;94618.38;5038958;28;7327;-37
2024/01/13 13:11:04;;;;;;;;;;;;;;;25.51;38.25;94620.38;5032086;28;7442;-37
2024/01/13 13:13:52;;;;;;;;;;;;;;;25.57;38.61;94605.34;5016258;28;9457;-37
2024/01/13 13:16:30;;;;;;;;;;;;;;;25.57;38.37;94583.31;5015796;28;9310;-37
2024/01/13 13:19:27;;;;;;;;;;;;;;;25.62;38.36;94581.78;5037003;28;7241;-37
2024/01/13 13:21:55;;;;;;;;;;;;;;;25.62;38.78;94574.25;5038445;28;9437;-38
2024/01/13 13:24:31;;;;;;;;;;;;;;;25.66;38.81;94566.50;5027008;28;8905;-38
2024/01/13 13:26:59;;;;;;;;;;;;;;;25.70;38.45;94561.47;5033936;28;9312;-37
2024/01/13 13:29:31;;;;;;;;;;;;;;;25.71;38.47;94553.97;5035313;28;9055;-38
2024/01/13 13:32:13;;;;;;;;;;;;;;;25.75;38.26;94552.41;5023255;28;7250;-38
2024/01/13 13:34:39;;;;;;;;;;;;;;;25.75;37.88;94537.91;5015882;28;7393;-38